sensor_id;sensor_type;location;lat;lon;timestamp;P1;durP1;ratioP1;P2;durP2;ratioP2
48789;SDS011;41718;51.980;5.734;2023-08-30T00:02:41;5.25;;;4.18;;
48789;SDS011;41718;51.980;5.734;2023-08-30T00:07:43;6.95;;;4.50;;
48789;SDS011;41718;51.980;5.734;2023-08-30T00:12:44;8.35;;;5.43;;
48789;SDS011;41718;51.980;5.734;2023-08-30T00:17:46;7.07;;;5.45;;
48789;SDS011;41718;51.980;5.734;2023-08-30T00:22:47;9.30;;;5.85;;
48789;SDS011;41718;51.980;5.734;2023-08-30T00:27:52;6.82;;;4.30;;
48789;SDS011;41718;51.980;5.734;2023-08-30T00:32:53;6.10;;;4.20;;
48789;SDS011;41718;51.980;5.734;2023-08-30T00:37:55;5.70;;;4.10;;
48789;SDS011;41718;51.980;5.734;2023-08-30T00:42:56;6.13;;;3.95;;
48789;SDS011;41718;51.980;5.734;2023-08-30T00:47:58;6.40;;;4.65;;
48789;SDS011;41718;51.980;5.734;2023-08-30T00:53:00;4.65;;;3.78;;
48789;SDS011;41718;51.980;5.734;2023-08-30T01:03:09;6.35;;;4.95;;
48789;SDS011;41718;51.980;5.734;2023-08-30T01:08:10;8.38;;;5.05;;
48789;SDS011;41718;51.980;5.734;2023-08-30T01:13:12;8.63;;;5.07;;
48789;SDS011;41718;51.980;5.734;2023-08-30T01:18:19;6.85;;;5.18;;
48789;SDS011;41718;51.980;5.734;2023-08-30T01:28:37;7.55;;;5.25;;
48789;SDS011;41718;51.980;5.734;2023-08-30T01:33:40;6.63;;;4.82;;
48789;SDS011;41718;51.980;5.734;2023-08-30T01:38:43;7.90;;;5.25;;
48789;SDS011;41718;51.980;5.734;2023-08-30T01:43:47;6.55;;;5.15;;
48789;SDS011;41718;51.980;5.734;2023-08-30T01:48:50;8.00;;;5.40;;
48789;SDS011;41718;51.980;5.734;2023-08-30T01:53:53;9.43;;;5.63;;
48789;SDS011;41718;51.980;5.734;2023-08-30T01:58:56;9.55;;;6.25;;
48789;SDS011;41718;51.980;5.734;2023-08-30T02:03:58;7.43;;;4.90;;
48789;SDS011;41718;51.980;5.734;2023-08-30T02:09:03;7.28;;;4.20;;
48789;SDS011;41718;51.980;5.734;2023-08-30T02:14:11;7.20;;;3.65;;
48789;SDS011;41718;51.980;5.734;2023-08-30T02:19:18;7.28;;;3.67;;
48789;SDS011;41718;51.980;5.734;2023-08-30T02:24:22;5.38;;;3.53;;
48789;SDS011;41718;51.980;5.734;2023-08-30T02:29:24;7.22;;;4.88;;
48789;SDS011;41718;51.980;5.734;2023-08-30T02:34:25;10.43;;;6.13;;
48789;SDS011;41718;51.980;5.734;2023-08-30T02:39:27;9.63;;;6.60;;
48789;SDS011;41718;51.980;5.734;2023-08-30T02:44:28;10.93;;;7.35;;
48789;SDS011;41718;51.980;5.734;2023-08-30T02:49:30;10.27;;;6.63;;
48789;SDS011;41718;51.980;5.734;2023-08-30T02:54:32;10.35;;;7.10;;
48789;SDS011;41718;51.980;5.734;2023-08-30T02:59:33;8.43;;;6.85;;
48789;SDS011;41718;51.980;5.734;2023-08-30T03:04:35;8.10;;;5.85;;
48789;SDS011;41718;51.980;5.734;2023-08-30T03:09:37;9.63;;;6.78;;
48789;SDS011;41718;51.980;5.734;2023-08-30T03:14:39;8.75;;;6.85;;
48789;SDS011;41718;51.980;5.734;2023-08-30T03:19:41;10.32;;;6.85;;
48789;SDS011;41718;51.980;5.734;2023-08-30T03:24:42;10.98;;;7.50;;
48789;SDS011;41718;51.980;5.734;2023-08-30T03:29:44;12.32;;;7.38;;
48789;SDS011;41718;51.980;5.734;2023-08-30T03:34:46;11.48;;;7.30;;
48789;SDS011;41718;51.980;5.734;2023-08-30T03:39:48;12.00;;;7.30;;
48789;SDS011;41718;51.980;5.734;2023-08-30T03:44:49;10.73;;;7.97;;
48789;SDS011;41718;51.980;5.734;2023-08-30T03:49:52;12.15;;;7.65;;
48789;SDS011;41718;51.980;5.734;2023-08-30T03:54:54;19.38;;;8.98;;
48789;SDS011;41718;51.980;5.734;2023-08-30T03:59:55;10.25;;;6.68;;
48789;SDS011;41718;51.980;5.734;2023-08-30T04:04:57;12.75;;;6.75;;
48789;SDS011;41718;51.980;5.734;2023-08-30T04:09:58;9.82;;;7.00;;
48789;SDS011;41718;51.980;5.734;2023-08-30T04:15:03;11.70;;;7.35;;
48789;SDS011;41718;51.980;5.734;2023-08-30T04:20:05;10.75;;;7.13;;
48789;SDS011;41718;51.980;5.734;2023-08-30T04:25:08;11.57;;;7.88;;
48789;SDS011;41718;51.980;5.734;2023-08-30T04:30:10;10.15;;;6.43;;
48789;SDS011;41718;51.980;5.734;2023-08-30T04:35:12;10.75;;;7.35;;
48789;SDS011;41718;51.980;5.734;2023-08-30T04:40:14;13.65;;;7.72;;
48789;SDS011;41718;51.980;5.734;2023-08-30T04:45:16;10.20;;;7.32;;
48789;SDS011;41718;51.980;5.734;2023-08-30T04:50:17;10.88;;;7.13;;
48789;SDS011;41718;51.980;5.734;2023-08-30T04:55:19;11.75;;;7.38;;
48789;SDS011;41718;51.980;5.734;2023-08-30T05:00:20;12.52;;;6.07;;
48789;SDS011;41718;51.980;5.734;2023-08-30T05:05:22;10.55;;;7.15;;
48789;SDS011;41718;51.980;5.734;2023-08-30T05:10:24;10.20;;;6.88;;
48789;SDS011;41718;51.980;5.734;2023-08-30T05:15:25;12.23;;;7.28;;
48789;SDS011;41718;51.980;5.734;2023-08-30T05:20:27;11.15;;;7.65;;
48789;SDS011;41718;51.980;5.734;2023-08-30T05:25:28;11.63;;;7.32;;
48789;SDS011;41718;51.980;5.734;2023-08-30T05:30:30;10.45;;;7.35;;
48789;SDS011;41718;51.980;5.734;2023-08-30T05:35:32;13.13;;;7.60;;
48789;SDS011;41718;51.980;5.734;2023-08-30T05:40:33;12.45;;;7.55;;
48789;SDS011;41718;51.980;5.734;2023-08-30T05:45:35;13.90;;;7.43;;
48789;SDS011;41718;51.980;5.734;2023-08-30T05:50:36;11.82;;;8.48;;
48789;SDS011;41718;51.980;5.734;2023-08-30T05:55:38;15.90;;;9.05;;
48789;SDS011;41718;51.980;5.734;2023-08-30T06:00:41;15.63;;;10.02;;
48789;SDS011;41718;51.980;5.734;2023-08-30T06:05:46;14.60;;;8.63;;
48789;SDS011;41718;51.980;5.734;2023-08-30T06:10:50;13.50;;;8.68;;
48789;SDS011;41718;51.980;5.734;2023-08-30T06:15:51;15.98;;;10.00;;
48789;SDS011;41718;51.980;5.734;2023-08-30T06:20:53;11.65;;;8.80;;
48789;SDS011;41718;51.980;5.734;2023-08-30T06:25:55;13.13;;;8.95;;
48789;SDS011;41718;51.980;5.734;2023-08-30T06:30:57;15.65;;;9.65;;
48789;SDS011;41718;51.980;5.734;2023-08-30T06:35:59;13.70;;;10.23;;
48789;SDS011;41718;51.980;5.734;2023-08-30T06:41:00;16.05;;;10.35;;
48789;SDS011;41718;51.980;5.734;2023-08-30T06:46:02;11.40;;;7.88;;
48789;SDS011;41718;51.980;5.734;2023-08-30T06:51:04;12.18;;;8.02;;
48789;SDS011;41718;51.980;5.734;2023-08-30T06:56:06;16.05;;;9.35;;
48789;SDS011;41718;51.980;5.734;2023-08-30T07:01:07;12.70;;;8.68;;
48789;SDS011;41718;51.980;5.734;2023-08-30T07:06:09;13.93;;;8.38;;
48789;SDS011;41718;51.980;5.734;2023-08-30T07:11:11;14.27;;;8.73;;
48789;SDS011;41718;51.980;5.734;2023-08-30T07:16:32;10.73;;;8.27;;
48789;SDS011;41718;51.980;5.734;2023-08-30T07:21:34;11.70;;;8.88;;
48789;SDS011;41718;51.980;5.734;2023-08-30T07:26:46;11.13;;;8.02;;
48789;SDS011;41718;51.980;5.734;2023-08-30T07:33:03;12.68;;;8.07;;
48789;SDS011;41718;51.980;5.734;2023-08-30T07:38:09;15.25;;;8.55;;
48789;SDS011;41718;51.980;5.734;2023-08-30T07:43:21;10.30;;;7.55;;
48789;SDS011;41718;51.980;5.734;2023-08-30T07:48:32;14.15;;;9.65;;
48789;SDS011;41718;51.980;5.734;2023-08-30T07:53:34;13.38;;;9.15;;
48789;SDS011;41718;51.980;5.734;2023-08-30T07:58:38;13.35;;;8.55;;
48789;SDS011;41718;51.980;5.734;2023-08-30T08:03:45;14.55;;;8.65;;
48789;SDS011;41718;51.980;5.734;2023-08-30T08:09:07;8.80;;;5.97;;
48789;SDS011;41718;51.980;5.734;2023-08-30T08:14:26;11.05;;;7.35;;
48789;SDS011;41718;51.980;5.734;2023-08-30T08:19:28;11.23;;;6.95;;
48789;SDS011;41718;51.980;5.734;2023-08-30T08:24:31;16.10;;;7.25;;
48789;SDS011;41718;51.980;5.734;2023-08-30T08:29:33;14.75;;;9.35;;
48789;SDS011;41718;51.980;5.734;2023-08-30T08:34:34;10.38;;;7.50;;
48789;SDS011;41718;51.980;5.734;2023-08-30T08:39:36;9.23;;;6.35;;
48789;SDS011;41718;51.980;5.734;2023-08-30T08:44:37;14.77;;;9.43;;
48789;SDS011;41718;51.980;5.734;2023-08-30T08:49:41;10.63;;;7.47;;
48789;SDS011;41718;51.980;5.734;2023-08-30T08:54:43;9.80;;;7.07;;
48789;SDS011;41718;51.980;5.734;2023-08-30T08:59:46;10.70;;;8.00;;
48789;SDS011;41718;51.980;5.734;2023-08-30T09:04:47;10.27;;;7.32;;
48789;SDS011;41718;51.980;5.734;2023-08-30T09:09:49;9.82;;;6.65;;
48789;SDS011;41718;51.980;5.734;2023-08-30T09:14:52;8.85;;;6.72;;
48789;SDS011;41718;51.980;5.734;2023-08-30T09:20:04;9.55;;;7.40;;
48789;SDS011;41718;51.980;5.734;2023-08-30T09:25:11;8.63;;;6.85;;
48789;SDS011;41718;51.980;5.734;2023-08-30T09:30:23;8.68;;;6.00;;
48789;SDS011;41718;51.980;5.734;2023-08-30T09:35:25;7.70;;;6.15;;
48789;SDS011;41718;51.980;5.734;2023-08-30T09:40:29;7.53;;;6.10;;
48789;SDS011;41718;51.980;5.734;2023-08-30T09:45:31;9.48;;;5.32;;
48789;SDS011;41718;51.980;5.734;2023-08-30T09:50:34;5.80;;;4.43;;
48789;SDS011;41718;51.980;5.734;2023-08-30T09:55:36;6.63;;;5.15;;
48789;SDS011;41718;51.980;5.734;2023-08-30T10:00:39;6.35;;;4.88;;
48789;SDS011;41718;51.980;5.734;2023-08-30T10:05:41;6.60;;;5.07;;
48789;SDS011;41718;51.980;5.734;2023-08-30T10:10:43;6.90;;;5.10;;
48789;SDS011;41718;51.980;5.734;2023-08-30T10:15:45;7.60;;;5.70;;
48789;SDS011;41718;51.980;5.734;2023-08-30T10:20:52;8.20;;;6.57;;
48789;SDS011;41718;51.980;5.734;2023-08-30T10:25:55;10.52;;;7.20;;
48789;SDS011;41718;51.980;5.734;2023-08-30T10:30:58;11.68;;;8.38;;
48789;SDS011;41718;51.980;5.734;2023-08-30T10:36:05;13.82;;;8.07;;
48789;SDS011;41718;51.980;5.734;2023-08-30T10:41:07;8.65;;;7.40;;
48789;SDS011;41718;51.980;5.734;2023-08-30T10:46:09;11.02;;;8.13;;
48789;SDS011;41718;51.980;5.734;2023-08-30T10:51:21;10.35;;;7.97;;
48789;SDS011;41718;51.980;5.734;2023-08-30T10:56:35;11.73;;;7.88;;
48789;SDS011;41718;51.980;5.734;2023-08-30T11:01:48;11.15;;;7.68;;
48789;SDS011;41718;51.980;5.734;2023-08-30T11:06:53;8.60;;;6.18;;
48789;SDS011;41718;51.980;5.734;2023-08-30T11:11:56;9.57;;;6.85;;
48789;SDS011;41718;51.980;5.734;2023-08-30T11:16:58;5.93;;;4.82;;
48789;SDS011;41718;51.980;5.734;2023-08-30T11:21:59;5.10;;;4.50;;
48789;SDS011;41718;51.980;5.734;2023-08-30T11:27:03;4.90;;;4.40;;
48789;SDS011;41718;51.980;5.734;2023-08-30T11:32:07;4.93;;;3.88;;
48789;SDS011;41718;51.980;5.734;2023-08-30T11:37:09;4.03;;;3.63;;
48789;SDS011;41718;51.980;5.734;2023-08-30T11:42:10;3.45;;;2.80;;
48789;SDS011;41718;51.980;5.734;2023-08-30T11:47:22;4.13;;;3.67;;
48789;SDS011;41718;51.980;5.734;2023-08-30T11:57:27;4.38;;;2.85;;
48789;SDS011;41718;51.980;5.734;2023-08-30T12:02:29;5.07;;;2.78;;
48789;SDS011;41718;51.980;5.734;2023-08-30T12:07:30;1.65;;;1.20;;
48789;SDS011;41718;51.980;5.734;2023-08-30T12:12:32;3.65;;;2.33;;
48789;SDS011;41718;51.980;5.734;2023-08-30T12:17:35;2.30;;;1.25;;
48789;SDS011;41718;51.980;5.734;2023-08-30T12:27:41;4.15;;;2.20;;
48789;SDS011;41718;51.980;5.734;2023-08-30T12:32:43;4.25;;;1.75;;
48789;SDS011;41718;51.980;5.734;2023-08-30T12:37:46;3.38;;;1.60;;
48789;SDS011;41718;51.980;5.734;2023-08-30T12:42:47;3.50;;;1.65;;
48789;SDS011;41718;51.980;5.734;2023-08-30T12:47:49;5.82;;;2.45;;
48789;SDS011;41718;51.980;5.734;2023-08-30T12:52:51;1.83;;;1.05;;
48789;SDS011;41718;51.980;5.734;2023-08-30T12:57:54;6.40;;;1.90;;
48789;SDS011;41718;51.980;5.734;2023-08-30T13:02:56;5.63;;;2.60;;
48789;SDS011;41718;51.980;5.734;2023-08-30T13:07:59;6.65;;;1.90;;
48789;SDS011;41718;51.980;5.734;2023-08-30T13:13:01;3.88;;;1.88;;
48789;SDS011;41718;51.980;5.734;2023-08-30T13:18:02;4.13;;;2.10;;
48789;SDS011;41718;51.980;5.734;2023-08-30T13:23:04;7.45;;;2.00;;
48789;SDS011;41718;51.980;5.734;2023-08-30T13:28:06;4.53;;;1.83;;
48789;SDS011;41718;51.980;5.734;2023-08-30T13:33:08;3.03;;;1.48;;
48789;SDS011;41718;51.980;5.734;2023-08-30T13:38:10;5.72;;;3.30;;
48789;SDS011;41718;51.980;5.734;2023-08-30T13:43:12;2.55;;;1.38;;
48789;SDS011;41718;51.980;5.734;2023-08-30T13:48:16;4.20;;;1.38;;
48789;SDS011;41718;51.980;5.734;2023-08-30T13:53:18;4.82;;;1.90;;
48789;SDS011;41718;51.980;5.734;2023-08-30T13:58:19;2.92;;;1.08;;
48789;SDS011;41718;51.980;5.734;2023-08-30T14:03:21;4.25;;;1.77;;
48789;SDS011;41718;51.980;5.734;2023-08-30T14:08:24;6.32;;;2.13;;
48789;SDS011;41718;51.980;5.734;2023-08-30T14:13:25;6.75;;;1.20;;
48789;SDS011;41718;51.980;5.734;2023-08-30T14:18:29;4.07;;;1.30;;
48789;SDS011;41718;51.980;5.734;2023-08-30T14:23:31;5.15;;;1.67;;
48789;SDS011;41718;51.980;5.734;2023-08-30T14:28:32;4.30;;;2.05;;
48789;SDS011;41718;51.980;5.734;2023-08-30T14:33:34;3.63;;;1.73;;
48789;SDS011;41718;51.980;5.734;2023-08-30T14:38:36;6.25;;;1.65;;
48789;SDS011;41718;51.980;5.734;2023-08-30T14:43:38;4.35;;;1.27;;
48789;SDS011;41718;51.980;5.734;2023-08-30T14:48:40;1.60;;;0.82;;
48789;SDS011;41718;51.980;5.734;2023-08-30T14:53:41;4.32;;;1.30;;
48789;SDS011;41718;51.980;5.734;2023-08-30T14:58:43;4.78;;;1.38;;
48789;SDS011;41718;51.980;5.734;2023-08-30T15:03:50;2.22;;;1.25;;
48789;SDS011;41718;51.980;5.734;2023-08-30T15:08:52;1.80;;;0.88;;
48789;SDS011;41718;51.980;5.734;2023-08-30T15:13:53;4.50;;;0.80;;
48789;SDS011;41718;51.980;5.734;2023-08-30T15:18:55;2.83;;;0.80;;
48789;SDS011;41718;51.980;5.734;2023-08-30T15:23:57;1.08;;;0.70;;
48789;SDS011;41718;51.980;5.734;2023-08-30T15:28:58;3.70;;;0.93;;
48789;SDS011;41718;51.980;5.734;2023-08-30T15:34:00;1.52;;;0.70;;
48789;SDS011;41718;51.980;5.734;2023-08-30T15:39:02;2.65;;;1.30;;
48789;SDS011;41718;51.980;5.734;2023-08-30T15:44:04;3.45;;;1.05;;
48789;SDS011;41718;51.980;5.734;2023-08-30T15:49:06;2.50;;;1.20;;
48789;SDS011;41718;51.980;5.734;2023-08-30T15:54:07;2.65;;;0.90;;
48789;SDS011;41718;51.980;5.734;2023-08-30T15:59:10;1.17;;;0.95;;
48789;SDS011;41718;51.980;5.734;2023-08-30T16:04:12;1.08;;;1.00;;
48789;SDS011;41718;51.980;5.734;2023-08-30T16:09:14;3.80;;;1.77;;
48789;SDS011;41718;51.980;5.734;2023-08-30T16:14:15;3.95;;;3.42;;
48789;SDS011;41718;51.980;5.734;2023-08-30T16:19:17;1.20;;;1.00;;
48789;SDS011;41718;51.980;5.734;2023-08-30T16:24:23;1.40;;;1.13;;
48789;SDS011;41718;51.980;5.734;2023-08-30T16:29:24;4.03;;;1.77;;
48789;SDS011;41718;51.980;5.734;2023-08-30T16:34:26;2.03;;;0.90;;
48789;SDS011;41718;51.980;5.734;2023-08-30T16:39:27;2.35;;;1.13;;
48789;SDS011;41718;51.980;5.734;2023-08-30T16:44:29;1.13;;;0.90;;
48789;SDS011;41718;51.980;5.734;2023-08-30T16:49:31;2.20;;;1.58;;
48789;SDS011;41718;51.980;5.734;2023-08-30T16:54:33;2.03;;;1.25;;
48789;SDS011;41718;51.980;5.734;2023-08-30T16:59:34;5.43;;;1.15;;
48789;SDS011;41718;51.980;5.734;2023-08-30T17:04:36;3.08;;;1.13;;
48789;SDS011;41718;51.980;5.734;2023-08-30T17:09:38;2.70;;;2.10;;
48789;SDS011;41718;51.980;5.734;2023-08-30T17:14:42;3.53;;;2.50;;
48789;SDS011;41718;51.980;5.734;2023-08-30T17:19:44;3.30;;;2.30;;
48789;SDS011;41718;51.980;5.734;2023-08-30T17:24:45;7.22;;;4.82;;
48789;SDS011;41718;51.980;5.734;2023-08-30T17:29:47;6.05;;;5.00;;
48789;SDS011;41718;51.980;5.734;2023-08-30T17:34:49;1.77;;;1.40;;
48789;SDS011;41718;51.980;5.734;2023-08-30T17:39:50;3.03;;;1.27;;
48789;SDS011;41718;51.980;5.734;2023-08-30T17:44:52;2.15;;;1.33;;
48789;SDS011;41718;51.980;5.734;2023-08-30T17:49:59;2.00;;;1.60;;
48789;SDS011;41718;51.980;5.734;2023-08-30T17:55:01;4.22;;;1.88;;
48789;SDS011;41718;51.980;5.734;2023-08-30T18:00:03;2.78;;;1.25;;
48789;SDS011;41718;51.980;5.734;2023-08-30T18:05:06;3.22;;;1.40;;
48789;SDS011;41718;51.980;5.734;2023-08-30T18:10:11;3.28;;;1.25;;
48789;SDS011;41718;51.980;5.734;2023-08-30T18:15:13;3.55;;;1.40;;
48789;SDS011;41718;51.980;5.734;2023-08-30T18:20:14;2.53;;;1.27;;
48789;SDS011;41718;51.980;5.734;2023-08-30T18:25:16;5.13;;;1.95;;
48789;SDS011;41718;51.980;5.734;2023-08-30T18:30:18;1.10;;;1.00;;
48789;SDS011;41718;51.980;5.734;2023-08-30T18:35:20;3.55;;;1.27;;
48789;SDS011;41718;51.980;5.734;2023-08-30T18:40:22;3.53;;;0.90;;
48789;SDS011;41718;51.980;5.734;2023-08-30T18:45:25;3.80;;;1.00;;
48789;SDS011;41718;51.980;5.734;2023-08-30T18:50:30;2.17;;;1.02;;
48789;SDS011;41718;51.980;5.734;2023-08-30T18:55:31;1.83;;;1.40;;
48789;SDS011;41718;51.980;5.734;2023-08-30T19:00:38;4.15;;;1.10;;
48789;SDS011;41718;51.980;5.734;2023-08-30T19:05:44;1.98;;;0.85;;
48789;SDS011;41718;51.980;5.734;2023-08-30T19:10:49;5.90;;;2.70;;
48789;SDS011;41718;51.980;5.734;2023-08-30T19:15:51;3.45;;;1.48;;
48789;SDS011;41718;51.980;5.734;2023-08-30T19:20:54;1.33;;;1.23;;
48789;SDS011;41718;51.980;5.734;2023-08-30T19:25:59;3.20;;;1.03;;
48789;SDS011;41718;51.980;5.734;2023-08-30T19:31:01;4.68;;;1.60;;
48789;SDS011;41718;51.980;5.734;2023-08-30T19:36:03;2.65;;;1.13;;
48789;SDS011;41718;51.980;5.734;2023-08-30T19:41:05;2.08;;;0.95;;
48789;SDS011;41718;51.980;5.734;2023-08-30T19:46:10;3.93;;;0.80;;
48789;SDS011;41718;51.980;5.734;2023-08-30T19:51:13;1.67;;;1.20;;
48789;SDS011;41718;51.980;5.734;2023-08-30T19:56:20;5.93;;;2.15;;
48789;SDS011;41718;51.980;5.734;2023-08-30T20:01:24;1.27;;;0.93;;
48789;SDS011;41718;51.980;5.734;2023-08-30T20:06:32;4.05;;;1.30;;
48789;SDS011;41718;51.980;5.734;2023-08-30T20:11:44;5.95;;;2.03;;
48789;SDS011;41718;51.980;5.734;2023-08-30T20:16:46;1.85;;;0.88;;
48789;SDS011;41718;51.980;5.734;2023-08-30T20:21:48;3.60;;;1.40;;
48789;SDS011;41718;51.980;5.734;2023-08-30T20:26:53;1.88;;;1.38;;
48789;SDS011;41718;51.980;5.734;2023-08-30T20:31:55;1.75;;;1.13;;
48789;SDS011;41718;51.980;5.734;2023-08-30T20:36:57;3.58;;;1.48;;
48789;SDS011;41718;51.980;5.734;2023-08-30T20:41:58;3.00;;;1.83;;
48789;SDS011;41718;51.980;5.734;2023-08-30T20:47:00;1.27;;;1.10;;
48789;SDS011;41718;51.980;5.734;2023-08-30T20:57:08;2.92;;;1.20;;
48789;SDS011;41718;51.980;5.734;2023-08-30T21:02:11;1.58;;;1.15;;
48789;SDS011;41718;51.980;5.734;2023-08-30T21:07:14;2.90;;;1.38;;
48789;SDS011;41718;51.980;5.734;2023-08-30T21:12:16;1.42;;;0.93;;
48789;SDS011;41718;51.980;5.734;2023-08-30T21:17:20;1.55;;;1.00;;
48789;SDS011;41718;51.980;5.734;2023-08-30T21:22:22;1.60;;;1.23;;
48789;SDS011;41718;51.980;5.734;2023-08-30T21:27:33;1.52;;;1.10;;
48789;SDS011;41718;51.980;5.734;2023-08-30T21:32:37;0.77;;;0.77;;
48789;SDS011;41718;51.980;5.734;2023-08-30T21:37:39;3.13;;;1.10;;
48789;SDS011;41718;51.980;5.734;2023-08-30T21:42:41;2.28;;;1.20;;
48789;SDS011;41718;51.980;5.734;2023-08-30T21:47:43;1.13;;;1.00;;
48789;SDS011;41718;51.980;5.734;2023-08-30T21:52:47;1.38;;;0.88;;
48789;SDS011;41718;51.980;5.734;2023-08-30T21:57:49;1.95;;;0.80;;
48789;SDS011;41718;51.980;5.734;2023-08-30T22:02:50;1.98;;;0.70;;
48789;SDS011;41718;51.980;5.734;2023-08-30T22:07:55;0.75;;;0.75;;
48789;SDS011;41718;51.980;5.734;2023-08-30T22:12:57;0.73;;;0.68;;
48789;SDS011;41718;51.980;5.734;2023-08-30T22:17:59;0.63;;;0.50;;
48789;SDS011;41718;51.980;5.734;2023-08-30T22:23:03;2.53;;;0.98;;
48789;SDS011;41718;51.980;5.734;2023-08-30T22:28:07;3.10;;;1.67;;
48789;SDS011;41718;51.980;5.734;2023-08-30T22:33:09;1.90;;;1.45;;
48789;SDS011;41718;51.980;5.734;2023-08-30T22:38:11;2.55;;;1.38;;
48789;SDS011;41718;51.980;5.734;2023-08-30T22:43:13;2.63;;;0.93;;
48789;SDS011;41718;51.980;5.734;2023-08-30T22:48:18;1.45;;;1.02;;
48789;SDS011;41718;51.980;5.734;2023-08-30T22:53:24;1.10;;;0.85;;
48789;SDS011;41718;51.980;5.734;2023-08-30T22:58:29;1.45;;;0.93;;
48789;SDS011;41718;51.980;5.734;2023-08-30T23:03:33;1.17;;;1.07;;
48789;SDS011;41718;51.980;5.734;2023-08-30T23:08:37;1.98;;;1.20;;
48789;SDS011;41718;51.980;5.734;2023-08-30T23:13:40;2.25;;;1.13;;
48789;SDS011;41718;51.980;5.734;2023-08-30T23:18:44;5.35;;;1.45;;
48789;SDS011;41718;51.980;5.734;2023-08-30T23:23:46;1.63;;;1.20;;
48789;SDS011;41718;51.980;5.734;2023-08-30T23:28:48;2.75;;;1.40;;
48789;SDS011;41718;51.980;5.734;2023-08-30T23:33:52;1.67;;;1.30;;
48789;SDS011;41718;51.980;5.734;2023-08-30T23:38:54;1.75;;;1.60;;
48789;SDS011;41718;51.980;5.734;2023-08-30T23:43:56;2.53;;;1.38;;
48789;SDS011;41718;51.980;5.734;2023-08-30T23:48:58;3.95;;;2.03;;
48789;SDS011;41718;51.980;5.734;2023-08-30T23:54:00;1.58;;;1.33;;
48789;SDS011;41718;51.980;5.734;2023-08-30T23:59:01;3.05;;;1.80;;
